Pagrindinis puslapis
METAR-TAF:

METAR-TAF

Oro uostai :

Belgorodas, Rusija

platuma: 50-38-36N, ilguma: 036-35-24E, Aukštis: 224 m

Dabartinis oras

Ataskaita buvo paskelbta 34 minutes, ne 16:00 UTC
Vėjas 12 kt iš Vakarų
Temperatūra 0°C
Drėgmė 93%
Slėgis 1000 hPa
Matomumas: 2800 m
Apsiniaukę ne aukštis 400 ft
sniegas, rūkana

METAR: UUOB 221600Z 27006MPS 2800 -SN BR OVC004 00/M01 Q1000 R29/290055 NOSIG

Laikas: 19:34 (16:34 UTC)

Prognozė

Ataskaita buvo paskelbta 2 valandos ir 34 minutes, ne 14:00 UTC
Prognozė galioja nuo 22 metu 15 UTC su 22 metu 24 UTC
Vėjas 10 kt iš Vakarų su gūsio iki 19 kt
Matomumas: 3100 m
Apsiniaukę ne aukštis 500 ft
rūkana
Laikinai
nuo 22 metu 15 UTC su 22 metu 18 UTC
Matomumas: 1000 m
Apsiniaukę ne aukštis 300 ft
sniegas, lietus, rūkana

TAF: UUOB 221400Z 2215/2224 26005G10MPS 3100 BR OVC005 TEMPO 2215/2218 1000 SNRA BR OVC003

Orai ataskaitas ir orų prognozės (METAR, TAF).

turimą stotys yra geltonos ir raudonos taškus žemėlapyje.

Perkelti pele per norėdami pamatyti stoties vardą.

Tada spustelėkite, norėdami matyti oro stebėjimo ir prognozės.

Norėdami pakeisti žemėlapį: spustelėkite ant žalios mygtukų su juodo kryžiaus žemyn,; žalią mygtuką su brūkšneliu, jei norite nutolinti; arba žalių rodyklių gretimoms žemėlapius.


METAR-TAF: